sensor_id;sensor_type;location;lat;lon;timestamp;temperature;humidity
37678;DHT22;23517;50.390;8.616;2022-10-22T00:02:25;12.80;99.90
37678;DHT22;23517;50.390;8.616;2022-10-22T00:04:53;12.70;99.90
37678;DHT22;23517;50.390;8.616;2022-10-22T00:07:22;12.70;99.90
37678;DHT22;23517;50.390;8.616;2022-10-22T00:09:49;12.80;99.90
37678;DHT22;23517;50.390;8.616;2022-10-22T00:12:16;12.80;99.90
37678;DHT22;23517;50.390;8.616;2022-10-22T00:14:43;12.80;99.90
37678;DHT22;23517;50.390;8.616;2022-10-22T00:17:10;12.70;99.90
37678;DHT22;23517;50.390;8.616;2022-10-22T00:19:38;12.70;99.90
37678;DHT22;23517;50.390;8.616;2022-10-22T00:22:05;12.70;99.90
37678;DHT22;23517;50.390;8.616;2022-10-22T00:24:33;12.70;99.90
37678;DHT22;23517;50.390;8.616;2022-10-22T00:27:02;12.70;99.90
37678;DHT22;23517;50.390;8.616;2022-10-22T00:29:29;12.70;99.90
37678;DHT22;23517;50.390;8.616;2022-10-22T00:31:55;12.70;99.90
37678;DHT22;23517;50.390;8.616;2022-10-22T00:34:23;12.70;99.90
37678;DHT22;23517;50.390;8.616;2022-10-22T00:36:50;12.60;99.90
37678;DHT22;23517;50.390;8.616;2022-10-22T00:39:21;12.60;99.90
37678;DHT22;23517;50.390;8.616;2022-10-22T00:41:51;12.60;99.90
37678;DHT22;23517;50.390;8.616;2022-10-22T00:47:40;12.50;99.90
37678;DHT22;23517;50.390;8.616;2022-10-22T00:50:39;12.50;99.90
37678;DHT22;23517;50.390;8.616;2022-10-22T00:53:28;12.50;99.90
37678;DHT22;23517;50.390;8.616;2022-10-22T00:55:58;12.50;99.90
37678;DHT22;23517;50.390;8.616;2022-10-22T00:58:28;12.50;99.90
37678;DHT22;23517;50.390;8.616;2022-10-22T01:00:57;12.50;99.90
37678;DHT22;23517;50.390;8.616;2022-10-22T01:03:24;12.50;99.90
37678;DHT22;23517;50.390;8.616;2022-10-22T01:05:56;12.50;99.90
37678;DHT22;23517;50.390;8.616;2022-10-22T01:11:34;12.50;99.90
37678;DHT22;23517;50.390;8.616;2022-10-22T01:17:09;12.60;99.90
37678;DHT22;23517;50.390;8.616;2022-10-22T01:20:09;12.60;99.90
37678;DHT22;23517;50.390;8.616;2022-10-22T01:26:08;12.60;99.90
37678;DHT22;23517;50.390;8.616;2022-10-22T01:31:17;12.60;99.90
37678;DHT22;23517;50.390;8.616;2022-10-22T01:33:46;12.60;99.90
37678;DHT22;23517;50.390;8.616;2022-10-22T01:36:15;12.60;99.90
37678;DHT22;23517;50.390;8.616;2022-10-22T01:38:44;12.60;99.90
37678;DHT22;23517;50.390;8.616;2022-10-22T01:41:12;12.60;99.90
37678;DHT22;23517;50.390;8.616;2022-10-22T01:43:39;12.70;99.90
37678;DHT22;23517;50.390;8.616;2022-10-22T01:46:06;12.60;99.90
37678;DHT22;23517;50.390;8.616;2022-10-22T01:51:51;12.70;99.90
37678;DHT22;23517;50.390;8.616;2022-10-22T01:54:32;12.80;99.90
37678;DHT22;23517;50.390;8.616;2022-10-22T01:57:32;12.80;99.90
37678;DHT22;23517;50.390;8.616;2022-10-22T02:00:11;12.80;99.90
37678;DHT22;23517;50.390;8.616;2022-10-22T02:03:02;12.80;99.90
37678;DHT22;23517;50.390;8.616;2022-10-22T02:05:42;12.90;99.90
37678;DHT22;23517;50.390;8.616;2022-10-22T02:08:16;12.90;99.90
37678;DHT22;23517;50.390;8.616;2022-10-22T02:10:46;12.90;99.90
37678;DHT22;23517;50.390;8.616;2022-10-22T02:13:19;13.00;99.90
37678;DHT22;23517;50.390;8.616;2022-10-22T02:15:52;13.00;99.90
37678;DHT22;23517;50.390;8.616;2022-10-22T02:18:21;13.00;99.90
37678;DHT22;23517;50.390;8.616;2022-10-22T02:20:51;13.00;99.90
37678;DHT22;23517;50.390;8.616;2022-10-22T02:23:19;13.10;99.90
37678;DHT22;23517;50.390;8.616;2022-10-22T02:25:50;13.20;99.90
37678;DHT22;23517;50.390;8.616;2022-10-22T02:28:31;13.20;99.90
37678;DHT22;23517;50.390;8.616;2022-10-22T02:31:14;13.20;99.90
37678;DHT22;23517;50.390;8.616;2022-10-22T02:33:47;13.20;99.90
37678;DHT22;23517;50.390;8.616;2022-10-22T02:36:15;13.20;99.90
37678;DHT22;23517;50.390;8.616;2022-10-22T02:38:43;13.20;99.90
37678;DHT22;23517;50.390;8.616;2022-10-22T02:41:11;13.20;99.90
37678;DHT22;23517;50.390;8.616;2022-10-22T02:43:42;13.10;99.90
37678;DHT22;23517;50.390;8.616;2022-10-22T02:46:10;13.10;99.90
37678;DHT22;23517;50.390;8.616;2022-10-22T02:48:37;13.10;99.90
37678;DHT22;23517;50.390;8.616;2022-10-22T02:51:04;13.10;99.90
37678;DHT22;23517;50.390;8.616;2022-10-22T02:53:31;13.10;99.90
37678;DHT22;23517;50.390;8.616;2022-10-22T02:55:58;13.10;99.90
37678;DHT22;23517;50.390;8.616;2022-10-22T02:58:25;13.10;99.90
37678;DHT22;23517;50.390;8.616;2022-10-22T03:00:51;13.10;99.90
37678;DHT22;23517;50.390;8.616;2022-10-22T03:03:18;13.20;99.90
37678;DHT22;23517;50.390;8.616;2022-10-22T03:05:44;13.20;99.60
37678;DHT22;23517;50.390;8.616;2022-10-22T03:08:12;13.10;99.80
37678;DHT22;23517;50.390;8.616;2022-10-22T03:10:38;13.20;99.70
37678;DHT22;23517;50.390;8.616;2022-10-22T03:13:05;13.20;99.70
37678;DHT22;23517;50.390;8.616;2022-10-22T03:15:32;13.10;99.90
37678;DHT22;23517;50.390;8.616;2022-10-22T03:17:58;13.10;99.90
37678;DHT22;23517;50.390;8.616;2022-10-22T03:20:25;13.10;99.90
37678;DHT22;23517;50.390;8.616;2022-10-22T03:22:52;13.10;99.90
37678;DHT22;23517;50.390;8.616;2022-10-22T03:25:22;13.10;99.90
37678;DHT22;23517;50.390;8.616;2022-10-22T03:27:51;13.00;99.90
37678;DHT22;23517;50.390;8.616;2022-10-22T03:30:20;13.00;99.90
37678;DHT22;23517;50.390;8.616;2022-10-22T03:32:46;13.00;99.90
37678;DHT22;23517;50.390;8.616;2022-10-22T03:35:13;13.00;99.90
37678;DHT22;23517;50.390;8.616;2022-10-22T03:37:40;13.00;99.90
37678;DHT22;23517;50.390;8.616;2022-10-22T03:40:07;13.00;99.90
37678;DHT22;23517;50.390;8.616;2022-10-22T03:42:36;12.90;99.90
37678;DHT22;23517;50.390;8.616;2022-10-22T03:45:04;12.90;99.90
37678;DHT22;23517;50.390;8.616;2022-10-22T03:47:31;12.90;99.90
37678;DHT22;23517;50.390;8.616;2022-10-22T03:49:58;12.90;99.90
37678;DHT22;23517;50.390;8.616;2022-10-22T03:52:25;12.90;99.90
37678;DHT22;23517;50.390;8.616;2022-10-22T03:54:51;12.80;99.90
37678;DHT22;23517;50.390;8.616;2022-10-22T03:57:18;12.80;99.90
37678;DHT22;23517;50.390;8.616;2022-10-22T03:59:45;12.90;99.90
37678;DHT22;23517;50.390;8.616;2022-10-22T04:02:12;12.90;99.90
37678;DHT22;23517;50.390;8.616;2022-10-22T04:04:39;12.80;99.90
37678;DHT22;23517;50.390;8.616;2022-10-22T04:07:06;12.80;99.90
37678;DHT22;23517;50.390;8.616;2022-10-22T04:09:34;12.80;99.90
37678;DHT22;23517;50.390;8.616;2022-10-22T04:12:01;12.80;99.90
37678;DHT22;23517;50.390;8.616;2022-10-22T04:14:27;12.70;99.90
37678;DHT22;23517;50.390;8.616;2022-10-22T04:16:54;12.70;99.90
37678;DHT22;23517;50.390;8.616;2022-10-22T04:19:21;12.70;99.90
37678;DHT22;23517;50.390;8.616;2022-10-22T04:21:47;12.70;99.90
37678;DHT22;23517;50.390;8.616;2022-10-22T04:24:14;12.70;99.90
37678;DHT22;23517;50.390;8.616;2022-10-22T04:26:41;12.70;99.90
37678;DHT22;23517;50.390;8.616;2022-10-22T04:29:08;12.70;99.90
37678;DHT22;23517;50.390;8.616;2022-10-22T04:31:41;12.70;99.90
37678;DHT22;23517;50.390;8.616;2022-10-22T04:34:08;12.70;99.90
37678;DHT22;23517;50.390;8.616;2022-10-22T04:36:34;12.70;99.90
37678;DHT22;23517;50.390;8.616;2022-10-22T04:39:01;12.70;99.90
37678;DHT22;23517;50.390;8.616;2022-10-22T04:41:31;12.70;99.90
37678;DHT22;23517;50.390;8.616;2022-10-22T04:44:02;12.70;99.90
37678;DHT22;23517;50.390;8.616;2022-10-22T04:46:31;12.70;99.90
37678;DHT22;23517;50.390;8.616;2022-10-22T04:48:59;12.70;99.90
37678;DHT22;23517;50.390;8.616;2022-10-22T04:51:26;12.60;99.90
37678;DHT22;23517;50.390;8.616;2022-10-22T04:53:53;12.60;99.90
37678;DHT22;23517;50.390;8.616;2022-10-22T04:56:28;12.60;99.90
37678;DHT22;23517;50.390;8.616;2022-10-22T04:58:58;12.50;99.90
37678;DHT22;23517;50.390;8.616;2022-10-22T05:04:11;12.50;99.90
37678;DHT22;23517;50.390;8.616;2022-10-22T05:06:39;12.40;99.90
37678;DHT22;23517;50.390;8.616;2022-10-22T05:09:12;12.40;99.90
37678;DHT22;23517;50.390;8.616;2022-10-22T05:11:42;12.40;99.90
37678;DHT22;23517;50.390;8.616;2022-10-22T05:14:16;12.40;99.90
37678;DHT22;23517;50.390;8.616;2022-10-22T05:16:45;12.40;99.90
37678;DHT22;23517;50.390;8.616;2022-10-22T05:19:20;12.40;99.90
37678;DHT22;23517;50.390;8.616;2022-10-22T05:21:50;12.50;99.90
37678;DHT22;23517;50.390;8.616;2022-10-22T05:24:18;12.70;99.90
37678;DHT22;23517;50.390;8.616;2022-10-22T05:26:45;12.70;99.90
37678;DHT22;23517;50.390;8.616;2022-10-22T05:29:15;12.70;99.90
37678;DHT22;23517;50.390;8.616;2022-10-22T05:31:41;12.70;99.90
37678;DHT22;23517;50.390;8.616;2022-10-22T05:34:08;12.80;99.90
37678;DHT22;23517;50.390;8.616;2022-10-22T05:36:35;12.80;99.90
37678;DHT22;23517;50.390;8.616;2022-10-22T05:39:02;12.80;99.90
37678;DHT22;23517;50.390;8.616;2022-10-22T05:41:29;12.80;99.90
37678;DHT22;23517;50.390;8.616;2022-10-22T05:43:57;12.80;99.90
37678;DHT22;23517;50.390;8.616;2022-10-22T05:46:29;12.80;99.90
37678;DHT22;23517;50.390;8.616;2022-10-22T05:48:59;12.80;99.90
37678;DHT22;23517;50.390;8.616;2022-10-22T05:51:29;12.80;99.90
37678;DHT22;23517;50.390;8.616;2022-10-22T05:53:59;12.90;99.90
37678;DHT22;23517;50.390;8.616;2022-10-22T05:56:29;12.90;99.90
37678;DHT22;23517;50.390;8.616;2022-10-22T05:58:57;12.90;99.90
37678;DHT22;23517;50.390;8.616;2022-10-22T06:01:29;12.90;99.90
37678;DHT22;23517;50.390;8.616;2022-10-22T06:03:59;12.90;99.90
37678;DHT22;23517;50.390;8.616;2022-10-22T06:06:42;12.90;99.90
37678;DHT22;23517;50.390;8.616;2022-10-22T06:09:21;12.80;99.90
37678;DHT22;23517;50.390;8.616;2022-10-22T06:11:50;12.80;99.90
37678;DHT22;23517;50.390;8.616;2022-10-22T06:14:23;12.80;99.90
37678;DHT22;23517;50.390;8.616;2022-10-22T06:16:50;12.80;99.90
37678;DHT22;23517;50.390;8.616;2022-10-22T06:19:19;12.70;99.90
37678;DHT22;23517;50.390;8.616;2022-10-22T06:21:46;12.70;99.90
37678;DHT22;23517;50.390;8.616;2022-10-22T06:24:14;12.80;99.90
37678;DHT22;23517;50.390;8.616;2022-10-22T06:26:41;12.80;99.90
37678;DHT22;23517;50.390;8.616;2022-10-22T06:29:07;12.80;99.90
37678;DHT22;23517;50.390;8.616;2022-10-22T06:31:34;12.70;99.90
37678;DHT22;23517;50.390;8.616;2022-10-22T06:34:05;12.70;99.90
37678;DHT22;23517;50.390;8.616;2022-10-22T06:36:33;12.60;99.90
37678;DHT22;23517;50.390;8.616;2022-10-22T06:39:01;12.70;99.90
37678;DHT22;23517;50.390;8.616;2022-10-22T06:41:28;12.60;99.90
37678;DHT22;23517;50.390;8.616;2022-10-22T06:43:55;12.60;99.90
37678;DHT22;23517;50.390;8.616;2022-10-22T06:46:23;12.70;99.90
37678;DHT22;23517;50.390;8.616;2022-10-22T06:48:53;12.60;99.90
37678;DHT22;23517;50.390;8.616;2022-10-22T06:51:22;12.70;99.90
37678;DHT22;23517;50.390;8.616;2022-10-22T06:53:49;12.70;99.90
37678;DHT22;23517;50.390;8.616;2022-10-22T06:56:19;12.80;99.90
37678;DHT22;23517;50.390;8.616;2022-10-22T06:58:51;12.80;99.90
37678;DHT22;23517;50.390;8.616;2022-10-22T07:01:21;12.80;99.90
37678;DHT22;23517;50.390;8.616;2022-10-22T07:03:50;12.90;99.90
37678;DHT22;23517;50.390;8.616;2022-10-22T07:06:18;12.90;99.90
37678;DHT22;23517;50.390;8.616;2022-10-22T07:08:46;13.00;99.90
37678;DHT22;23517;50.390;8.616;2022-10-22T07:11:15;13.10;99.90
37678;DHT22;23517;50.390;8.616;2022-10-22T07:13:46;13.20;99.90
37678;DHT22;23517;50.390;8.616;2022-10-22T07:16:14;13.20;99.90
37678;DHT22;23517;50.390;8.616;2022-10-22T07:18:42;13.30;99.90
37678;DHT22;23517;50.390;8.616;2022-10-22T07:21:10;13.40;99.90
37678;DHT22;23517;50.390;8.616;2022-10-22T07:23:38;13.40;99.90
37678;DHT22;23517;50.390;8.616;2022-10-22T07:26:05;13.60;99.90
37678;DHT22;23517;50.390;8.616;2022-10-22T07:28:34;13.60;99.90
37678;DHT22;23517;50.390;8.616;2022-10-22T07:31:02;13.70;99.90
37678;DHT22;23517;50.390;8.616;2022-10-22T07:33:29;13.80;99.90
37678;DHT22;23517;50.390;8.616;2022-10-22T07:35:59;13.90;99.90
37678;DHT22;23517;50.390;8.616;2022-10-22T07:38:28;13.90;99.90
37678;DHT22;23517;50.390;8.616;2022-10-22T07:40:57;14.00;99.90
37678;DHT22;23517;50.390;8.616;2022-10-22T07:43:24;14.00;99.90
37678;DHT22;23517;50.390;8.616;2022-10-22T07:45:51;14.10;99.90
37678;DHT22;23517;50.390;8.616;2022-10-22T07:48:18;14.10;99.90
37678;DHT22;23517;50.390;8.616;2022-10-22T07:50:45;14.20;99.90
37678;DHT22;23517;50.390;8.616;2022-10-22T07:53:11;14.20;98.90
37678;DHT22;23517;50.390;8.616;2022-10-22T07:55:38;14.30;99.50
37678;DHT22;23517;50.390;8.616;2022-10-22T07:58:04;14.30;99.30
37678;DHT22;23517;50.390;8.616;2022-10-22T08:00:31;14.40;99.10
37678;DHT22;23517;50.390;8.616;2022-10-22T08:02:58;14.60;98.00
37678;DHT22;23517;50.390;8.616;2022-10-22T08:05:24;14.60;97.30
37678;DHT22;23517;50.390;8.616;2022-10-22T08:07:51;14.70;97.50
37678;DHT22;23517;50.390;8.616;2022-10-22T08:10:18;14.90;97.20
37678;DHT22;23517;50.390;8.616;2022-10-22T08:12:44;15.00;95.10
37678;DHT22;23517;50.390;8.616;2022-10-22T08:15:11;15.10;93.40
37678;DHT22;23517;50.390;8.616;2022-10-22T08:17:38;15.20;92.20
37678;DHT22;23517;50.390;8.616;2022-10-22T08:20:05;15.30;92.10
37678;DHT22;23517;50.390;8.616;2022-10-22T08:22:32;15.50;91.80
37678;DHT22;23517;50.390;8.616;2022-10-22T08:24:59;15.60;92.50
37678;DHT22;23517;50.390;8.616;2022-10-22T08:27:26;15.80;90.70
37678;DHT22;23517;50.390;8.616;2022-10-22T08:29:53;16.00;87.30
37678;DHT22;23517;50.390;8.616;2022-10-22T08:32:19;16.50;85.10
37678;DHT22;23517;50.390;8.616;2022-10-22T08:34:46;18.20;78.60
37678;DHT22;23517;50.390;8.616;2022-10-22T08:37:12;21.10;54.90
37678;DHT22;23517;50.390;8.616;2022-10-22T08:39:40;23.20;43.50
37678;DHT22;23517;50.390;8.616;2022-10-22T08:45:23;25.70;34.40
37678;DHT22;23517;50.390;8.616;2022-10-22T08:50:59;28.90;25.90
37678;DHT22;23517;50.390;8.616;2022-10-22T08:53:40;30.20;24.60
37678;DHT22;23517;50.390;8.616;2022-10-22T08:56:09;30.50;22.30
37678;DHT22;23517;50.390;8.616;2022-10-22T08:59:01;28.60;25.20
37678;DHT22;23517;50.390;8.616;2022-10-22T09:01:37;26.40;28.10
37678;DHT22;23517;50.390;8.616;2022-10-22T09:06:41;23.20;34.90
37678;DHT22;23517;50.390;8.616;2022-10-22T09:09:16;22.10;39.20
37678;DHT22;23517;50.390;8.616;2022-10-22T09:14:22;20.50;41.50
37678;DHT22;23517;50.390;8.616;2022-10-22T09:19:40;19.50;48.70
37678;DHT22;23517;50.390;8.616;2022-10-22T09:27:47;18.30;52.40
37678;DHT22;23517;50.390;8.616;2022-10-22T09:30:22;18.10;53.80
37678;DHT22;23517;50.390;8.616;2022-10-22T09:32:58;18.00;54.90
37678;DHT22;23517;50.390;8.616;2022-10-22T09:35:27;17.80;56.30
37678;DHT22;23517;50.390;8.616;2022-10-22T09:37:55;17.80;56.70
37678;DHT22;23517;50.390;8.616;2022-10-22T09:40:22;17.70;56.60
37678;DHT22;23517;50.390;8.616;2022-10-22T09:42:50;17.70;57.30
37678;DHT22;23517;50.390;8.616;2022-10-22T09:45:24;17.70;57.60
37678;DHT22;23517;50.390;8.616;2022-10-22T09:48:21;17.80;56.60
37678;DHT22;23517;50.390;8.616;2022-10-22T09:51:22;17.80;56.40
37678;DHT22;23517;50.390;8.616;2022-10-22T09:59:46;18.20;53.50
37678;DHT22;23517;50.390;8.616;2022-10-22T10:02:33;18.10;53.80
37678;DHT22;23517;50.390;8.616;2022-10-22T10:05:05;18.10;60.40
37678;DHT22;23517;50.390;8.616;2022-10-22T10:07:34;18.10;60.20
37678;DHT22;23517;50.390;8.616;2022-10-22T10:10:02;18.40;55.20
37678;DHT22;23517;50.390;8.616;2022-10-22T10:13:00;18.60;54.30
37678;DHT22;23517;50.390;8.616;2022-10-22T10:19:03;19.00;50.30
37678;DHT22;23517;50.390;8.616;2022-10-22T10:24:49;18.90;53.00
37678;DHT22;23517;50.390;8.616;2022-10-22T10:27:43;18.80;53.20
37678;DHT22;23517;50.390;8.616;2022-10-22T10:30:17;18.70;54.80
37678;DHT22;23517;50.390;8.616;2022-10-22T10:33:04;18.60;54.40
37678;DHT22;23517;50.390;8.616;2022-10-22T10:36:18;18.70;55.50
37678;DHT22;23517;50.390;8.616;2022-10-22T10:39:15;18.70;54.70
37678;DHT22;23517;50.390;8.616;2022-10-22T10:45:16;18.80;54.60
37678;DHT22;23517;50.390;8.616;2022-10-22T10:48:04;18.90;54.90
37678;DHT22;23517;50.390;8.616;2022-10-22T10:51:07;18.70;55.60
37678;DHT22;23517;50.390;8.616;2022-10-22T10:54:03;18.80;53.50
37678;DHT22;23517;50.390;8.616;2022-10-22T10:56:41;18.80;54.90
37678;DHT22;23517;50.390;8.616;2022-10-22T11:04:53;18.70;54.80
37678;DHT22;23517;50.390;8.616;2022-10-22T11:07:45;18.70;55.90
37678;DHT22;23517;50.390;8.616;2022-10-22T11:10:28;18.80;56.40
37678;DHT22;23517;50.390;8.616;2022-10-22T11:13:17;18.80;56.90
37678;DHT22;23517;50.390;8.616;2022-10-22T11:16:04;18.70;56.70
37678;DHT22;23517;50.390;8.616;2022-10-22T11:21:32;18.60;56.60
37678;DHT22;23517;50.390;8.616;2022-10-22T11:24:17;18.70;56.30
37678;DHT22;23517;50.390;8.616;2022-10-22T11:26:57;18.80;56.90
37678;DHT22;23517;50.390;8.616;2022-10-22T11:29:41;19.10;56.20
37678;DHT22;23517;50.390;8.616;2022-10-22T11:32:17;19.30;54.90
37678;DHT22;23517;50.390;8.616;2022-10-22T11:34:52;19.20;54.80
37678;DHT22;23517;50.390;8.616;2022-10-22T11:37:21;19.20;53.80
37678;DHT22;23517;50.390;8.616;2022-10-22T11:39:56;19.20;54.20
37678;DHT22;23517;50.390;8.616;2022-10-22T12:03:48;18.20;82.90
37678;DHT22;23517;50.390;8.616;2022-10-22T12:06:28;18.40;53.10
37678;DHT22;23517;50.390;8.616;2022-10-22T12:09:00;18.60;52.00
37678;DHT22;23517;50.390;8.616;2022-10-22T12:11:45;18.80;51.60
37678;DHT22;23517;50.390;8.616;2022-10-22T12:16:56;18.90;49.10
37678;DHT22;23517;50.390;8.616;2022-10-22T12:19:38;18.90;49.50
37678;DHT22;23517;50.390;8.616;2022-10-22T12:22:14;18.80;51.00
37678;DHT22;23517;50.390;8.616;2022-10-22T12:24:47;18.80;50.70
37678;DHT22;23517;50.390;8.616;2022-10-22T12:27:35;18.80;50.80
37678;DHT22;23517;50.390;8.616;2022-10-22T12:32:44;19.10;50.90
37678;DHT22;23517;50.390;8.616;2022-10-22T12:35:18;19.20;49.30
37678;DHT22;23517;50.390;8.616;2022-10-22T12:38:13;19.10;49.30
37678;DHT22;23517;50.390;8.616;2022-10-22T12:40:42;19.00;50.00
37678;DHT22;23517;50.390;8.616;2022-10-22T12:43:16;18.80;50.00
37678;DHT22;23517;50.390;8.616;2022-10-22T12:45:50;18.50;50.40
37678;DHT22;23517;50.390;8.616;2022-10-22T12:48:26;18.70;51.20
37678;DHT22;23517;50.390;8.616;2022-10-22T12:50:57;18.70;49.60
37678;DHT22;23517;50.390;8.616;2022-10-22T12:56:11;18.60;49.90
37678;DHT22;23517;50.390;8.616;2022-10-22T12:58:44;18.50;50.50
37678;DHT22;23517;50.390;8.616;2022-10-22T13:01:15;18.30;50.10
37678;DHT22;23517;50.390;8.616;2022-10-22T13:03:49;18.20;51.00
37678;DHT22;23517;50.390;8.616;2022-10-22T13:09:11;18.30;50.70
37678;DHT22;23517;50.390;8.616;2022-10-22T13:11:54;18.30;51.20
37678;DHT22;23517;50.390;8.616;2022-10-22T13:14:29;18.50;50.60
37678;DHT22;23517;50.390;8.616;2022-10-22T13:17:14;18.60;48.70
37678;DHT22;23517;50.390;8.616;2022-10-22T13:20:01;18.60;48.90
37678;DHT22;23517;50.390;8.616;2022-10-22T13:22:34;18.70;49.30
37678;DHT22;23517;50.390;8.616;2022-10-22T13:27:46;18.80;48.90
37678;DHT22;23517;50.390;8.616;2022-10-22T13:30:26;18.90;49.10
37678;DHT22;23517;50.390;8.616;2022-10-22T13:33:20;18.80;48.90
37678;DHT22;23517;50.390;8.616;2022-10-22T13:35:49;18.60;48.50
37678;DHT22;23517;50.390;8.616;2022-10-22T13:38:18;18.50;48.50
37678;DHT22;23517;50.390;8.616;2022-10-22T13:40:46;18.40;48.60
37678;DHT22;23517;50.390;8.616;2022-10-22T13:43:12;18.30;49.40
37678;DHT22;23517;50.390;8.616;2022-10-22T13:45:39;18.20;48.80
37678;DHT22;23517;50.390;8.616;2022-10-22T13:48:12;18.10;49.20
37678;DHT22;23517;50.390;8.616;2022-10-22T13:50:41;18.00;48.50
37678;DHT22;23517;50.390;8.616;2022-10-22T13:53:12;17.90;49.60
37678;DHT22;23517;50.390;8.616;2022-10-22T13:55:44;17.80;49.30
37678;DHT22;23517;50.390;8.616;2022-10-22T13:58:14;17.70;50.60
37678;DHT22;23517;50.390;8.616;2022-10-22T14:00:51;17.50;50.80
37678;DHT22;23517;50.390;8.616;2022-10-22T14:03:27;17.50;50.40
37678;DHT22;23517;50.390;8.616;2022-10-22T14:05:56;17.50;49.70
37678;DHT22;23517;50.390;8.616;2022-10-22T14:08:25;17.50;49.70
37678;DHT22;23517;50.390;8.616;2022-10-22T14:10:53;17.50;47.80
37678;DHT22;23517;50.390;8.616;2022-10-22T14:13:20;17.50;47.60
37678;DHT22;23517;50.390;8.616;2022-10-22T14:15:49;17.40;48.50
37678;DHT22;23517;50.390;8.616;2022-10-22T14:18:22;17.30;49.20
37678;DHT22;23517;50.390;8.616;2022-10-22T14:20:58;17.30;49.30
37678;DHT22;23517;50.390;8.616;2022-10-22T14:23:30;17.30;49.20
37678;DHT22;23517;50.390;8.616;2022-10-22T14:25:58;17.30;49.50
37678;DHT22;23517;50.390;8.616;2022-10-22T14:28:25;17.40;49.60
37678;DHT22;23517;50.390;8.616;2022-10-22T14:30:54;17.40;49.50
37678;DHT22;23517;50.390;8.616;2022-10-22T14:33:29;17.50;49.80
37678;DHT22;23517;50.390;8.616;2022-10-22T14:36:01;17.40;49.10
37678;DHT22;23517;50.390;8.616;2022-10-22T14:38:29;17.40;49.80
37678;DHT22;23517;50.390;8.616;2022-10-22T14:40:56;17.50;50.10
37678;DHT22;23517;50.390;8.616;2022-10-22T14:43:25;17.50;50.00
37678;DHT22;23517;50.390;8.616;2022-10-22T14:45:53;17.50;49.70
37678;DHT22;23517;50.390;8.616;2022-10-22T14:48:20;17.50;50.20
37678;DHT22;23517;50.390;8.616;2022-10-22T14:50:47;17.50;50.30
37678;DHT22;23517;50.390;8.616;2022-10-22T14:53:14;17.50;50.30
37678;DHT22;23517;50.390;8.616;2022-10-22T14:55:43;17.50;50.50
37678;DHT22;23517;50.390;8.616;2022-10-22T14:58:10;17.50;51.00
37678;DHT22;23517;50.390;8.616;2022-10-22T15:00:40;17.50;51.30
37678;DHT22;23517;50.390;8.616;2022-10-22T15:03:08;17.50;51.50
37678;DHT22;23517;50.390;8.616;2022-10-22T15:05:35;17.50;52.30
37678;DHT22;23517;50.390;8.616;2022-10-22T15:08:12;17.60;53.50
37678;DHT22;23517;50.390;8.616;2022-10-22T15:10:39;17.50;53.40
37678;DHT22;23517;50.390;8.616;2022-10-22T15:13:06;17.50;55.10
37678;DHT22;23517;50.390;8.616;2022-10-22T15:15:33;17.50;56.40
37678;DHT22;23517;50.390;8.616;2022-10-22T15:18:05;17.50;56.90
37678;DHT22;23517;50.390;8.616;2022-10-22T15:20:32;17.40;57.50
37678;DHT22;23517;50.390;8.616;2022-10-22T15:22:59;17.30;58.50
37678;DHT22;23517;50.390;8.616;2022-10-22T15:25:25;17.30;59.20
37678;DHT22;23517;50.390;8.616;2022-10-22T15:27:52;17.20;58.40
37678;DHT22;23517;50.390;8.616;2022-10-22T15:30:27;17.20;57.80
37678;DHT22;23517;50.390;8.616;2022-10-22T15:32:54;17.10;58.30
37678;DHT22;23517;50.390;8.616;2022-10-22T15:35:20;17.10;59.20
37678;DHT22;23517;50.390;8.616;2022-10-22T15:37:50;17.00;61.80
37678;DHT22;23517;50.390;8.616;2022-10-22T15:40:17;16.90;64.10
37678;DHT22;23517;50.390;8.616;2022-10-22T15:42:46;16.90;65.30
37678;DHT22;23517;50.390;8.616;2022-10-22T15:45:12;16.80;66.00
37678;DHT22;23517;50.390;8.616;2022-10-22T15:47:39;16.70;66.80
37678;DHT22;23517;50.390;8.616;2022-10-22T15:50:13;16.70;69.10
37678;DHT22;23517;50.390;8.616;2022-10-22T15:52:40;16.60;70.30
37678;DHT22;23517;50.390;8.616;2022-10-22T15:55:06;16.40;70.80
37678;DHT22;23517;50.390;8.616;2022-10-22T15:57:36;16.40;71.60
37678;DHT22;23517;50.390;8.616;2022-10-22T16:00:04;16.30;72.10
37678;DHT22;23517;50.390;8.616;2022-10-22T16:02:32;16.30;73.90
37678;DHT22;23517;50.390;8.616;2022-10-22T16:04:58;16.20;74.60
37678;DHT22;23517;50.390;8.616;2022-10-22T16:07:25;16.10;76.10
37678;DHT22;23517;50.390;8.616;2022-10-22T16:09:56;16.10;76.80
37678;DHT22;23517;50.390;8.616;2022-10-22T16:12:23;16.00;77.50
37678;DHT22;23517;50.390;8.616;2022-10-22T16:14:50;15.80;78.70
37678;DHT22;23517;50.390;8.616;2022-10-22T16:17:17;15.70;79.90
37678;DHT22;23517;50.390;8.616;2022-10-22T16:19:43;15.50;80.90
37678;DHT22;23517;50.390;8.616;2022-10-22T16:22:10;15.40;81.30
37678;DHT22;23517;50.390;8.616;2022-10-22T16:24:39;15.20;81.00
37678;DHT22;23517;50.390;8.616;2022-10-22T16:27:07;15.10;81.90
37678;DHT22;23517;50.390;8.616;2022-10-22T16:29:36;15.00;82.80
37678;DHT22;23517;50.390;8.616;2022-10-22T16:32:03;14.80;83.20
37678;DHT22;23517;50.390;8.616;2022-10-22T16:34:30;14.70;83.70
37678;DHT22;23517;50.390;8.616;2022-10-22T16:36:57;14.50;84.60
37678;DHT22;23517;50.390;8.616;2022-10-22T16:39:23;14.40;84.70
37678;DHT22;23517;50.390;8.616;2022-10-22T16:41:50;14.30;85.20
37678;DHT22;23517;50.390;8.616;2022-10-22T16:44:17;14.20;86.00
37678;DHT22;23517;50.390;8.616;2022-10-22T16:46:43;14.10;85.90
37678;DHT22;23517;50.390;8.616;2022-10-22T16:49:10;14.10;85.50
37678;DHT22;23517;50.390;8.616;2022-10-22T16:51:38;14.00;85.60
37678;DHT22;23517;50.390;8.616;2022-10-22T16:54:04;13.90;85.80
37678;DHT22;23517;50.390;8.616;2022-10-22T16:56:36;13.80;86.40
37678;DHT22;23517;50.390;8.616;2022-10-22T16:59:03;13.70;87.20
37678;DHT22;23517;50.390;8.616;2022-10-22T17:01:30;13.60;87.60
37678;DHT22;23517;50.390;8.616;2022-10-22T17:04:00;13.60;88.70
37678;DHT22;23517;50.390;8.616;2022-10-22T17:06:27;13.50;88.30
37678;DHT22;23517;50.390;8.616;2022-10-22T17:08:54;13.40;88.70
37678;DHT22;23517;50.390;8.616;2022-10-22T17:11:23;13.30;89.80
37678;DHT22;23517;50.390;8.616;2022-10-22T17:13:52;13.30;90.60
37678;DHT22;23517;50.390;8.616;2022-10-22T17:16:22;13.30;90.60
37678;DHT22;23517;50.390;8.616;2022-10-22T17:18:50;13.30;90.20
37678;DHT22;23517;50.390;8.616;2022-10-22T17:21:19;13.20;90.30
37678;DHT22;23517;50.390;8.616;2022-10-22T17:23:46;13.20;89.90
37678;DHT22;23517;50.390;8.616;2022-10-22T17:26:16;13.10;90.30
37678;DHT22;23517;50.390;8.616;2022-10-22T17:28:45;13.10;90.10
37678;DHT22;23517;50.390;8.616;2022-10-22T17:31:21;13.00;90.90
37678;DHT22;23517;50.390;8.616;2022-10-22T17:33:51;12.90;91.60
37678;DHT22;23517;50.390;8.616;2022-10-22T17:36:19;12.90;91.70